Time;durP1;ratioP1;P1;durP2;ratioP2;P2;SDS_P1;SDS_P2;PMS_P1;PMS_P2;Temp;Humidity;BMP_temperature;BMP_pressure;BME280_temperature;BME280_humidity;BME280_pressure;Samples;Min_cycle;Max_cycle;Signal;HPM_P1;HPM_P2
2023/11/24 00:00:31;;;;;;;0.60;0.60;;;6.00;99.90;;;;;;6200780;23;20219;-83
2023/11/24 00:02:59;;;;;;;0.50;0.50;;;5.90;99.90;;;;;;6197151;23;20208;-82
2023/11/24 00:05:27;;;;;;;0.50;0.50;;;5.90;99.90;;;;;;6172978;23;20183;-79
2023/11/24 00:07:57;;;;;;;0.52;0.52;;;5.90;99.90;;;;;;6197444;23;20181;-81
2023/11/24 00:10:28;;;;;;;0.50;0.50;;;6.00;99.90;;;;;;6194022;23;20177;-82
2023/11/24 00:12:57;;;;;;;0.95;0.95;;;5.90;99.90;;;;;;6203769;23;20345;-81
2023/11/24 00:15:24;;;;;;;2.22;1.42;;;5.80;99.90;;;;;;6202003;23;20489;-82
2023/11/24 00:17:51;;;;;;;1.25;1.20;;;5.80;99.90;;;;;;6191760;23;20179;-83
2023/11/24 00:20:25;;;;;;;0.70;0.70;;;5.70;99.90;;;;;;6191425;23;20216;-85
2023/11/24 00:22:53;;;;;;;0.85;0.85;;;5.60;99.90;;;;;;6191300;23;20185;-83
2023/11/24 00:25:19;;;;;;;0.70;0.70;;;5.70;99.90;;;;;;6164968;23;20208;-87
2023/11/24 00:27:49;;;;;;;0.60;0.60;;;5.50;99.90;;;;;;6192120;23;20245;-86
2023/11/24 00:30:18;;;;;;;0.60;0.60;;;5.60;99.90;;;;;;6167518;23;20232;-81
2023/11/24 00:32:46;;;;;;;0.70;0.70;;;5.50;99.90;;;;;;6191819;23;20196;-85
2023/11/24 00:35:13;;;;;;;0.60;0.60;;;5.70;99.90;;;;;;6193099;23;20688;-84
2023/11/24 00:37:40;;;;;;;0.70;0.70;;;5.70;99.90;;;;;;6190496;23;20185;-83
2023/11/24 00:40:13;;;;;;;0.60;0.60;;;5.70;99.90;;;;;;6191484;23;20220;-82
2023/11/24 00:42:43;;;;;;;0.60;0.60;;;5.70;99.90;;;;;;6166851;23;20554;-80
2023/11/24 00:45:13;;;;;;;0.60;0.60;;;5.70;99.90;;;;;;6166841;23;20590;-82
2023/11/24 00:47:41;;;;;;;0.60;0.60;;;5.70;99.90;;;;;;6194677;23;20374;-82
2023/11/24 00:50:08;;;;;;;0.60;0.60;;;5.70;99.90;;;;;;6191631;23;20213;-83
2023/11/24 00:52:35;;;;;;;0.60;0.60;;;5.80;99.90;;;;;;6193306;23;20192;-83
2023/11/24 00:55:03;;;;;;;0.60;0.60;;;5.90;99.90;;;;;;6192913;23;20189;-80
2023/11/24 00:57:30;;;;;;;0.60;0.60;;;5.90;99.90;;;;;;6165644;23;20272;-81
2023/11/24 00:59:58;;;;;;;0.60;0.60;;;6.00;99.90;;;;;;6193760;23;20192;-81
2023/11/24 01:02:26;;;;;;;0.50;0.50;;;5.90;99.90;;;;;;6213349;23;20180;-82
2023/11/24 01:04:53;;;;;;;0.60;0.60;;;5.90;99.90;;;;;;6213628;23;20150;-85
2023/11/24 01:07:21;;;;;;;0.50;0.50;;;6.00;99.90;;;;;;6212785;23;20168;-83
2023/11/24 01:09:50;;;;;;;0.50;0.50;;;6.10;99.90;;;;;;6210537;23;20208;-80
2023/11/24 01:12:18;;;;;;;0.43;0.43;;;6.10;99.90;;;;;;6193967;23;20181;-84
2023/11/24 01:14:47;;;;;;;0.50;0.50;;;6.00;99.90;;;;;;6191805;23;20183;-84
2023/11/24 01:17:14;;;;;;;0.40;0.40;;;6.00;99.90;;;;;;6191737;23;20180;-85
2023/11/24 01:19:42;;;;;;;0.50;0.50;;;6.00;99.90;;;;;;6191804;23;20377;-82
2023/11/24 01:22:12;;;;;;;0.52;0.52;;;6.00;99.90;;;;;;6191618;23;20209;-83
2023/11/24 01:24:41;;;;;;;0.50;0.50;;;6.00;99.90;;;;;;6191164;23;20157;-80
2023/11/24 01:27:08;;;;;;;0.40;0.40;;;6.00;99.90;;;;;;6192662;23;20197;-83
2023/11/24 01:29:35;;;;;;;0.63;0.63;;;6.00;99.90;;;;;;6191763;23;20207;-83
2023/11/24 01:32:04;;;;;;;0.50;0.50;;;6.10;99.90;;;;;;6192940;23;20192;-84
2023/11/24 01:34:32;;;;;;;0.40;0.40;;;6.10;99.90;;;;;;6192506;23;20173;-85
2023/11/24 01:37:00;;;;;;;0.40;0.40;;;6.10;99.90;;;;;;6191831;23;20169;-81
2023/11/24 01:39:27;;;;;;;0.40;0.40;;;6.10;99.90;;;;;;6192361;23;20181;-84
2023/11/24 01:41:56;;;;;;;0.70;0.70;;;6.10;99.90;;;;;;6190695;23;20429;-82
2023/11/24 01:44:28;;;;;;;0.40;0.40;;;6.20;99.90;;;;;;6192187;23;20365;-81
2023/11/24 01:46:59;;;;;;;0.40;0.40;;;6.20;99.90;;;;;;6191796;23;20199;-83
2023/11/24 01:49:27;;;;;;;0.40;0.40;;;6.20;99.90;;;;;;6165361;23;20220;-84
2023/11/24 01:51:56;;;;;;;0.43;0.43;;;6.20;99.90;;;;;;6192062;23;20204;-84
2023/11/24 01:54:26;;;;;;;0.50;0.50;;;6.10;99.90;;;;;;6191615;23;20177;-82
2023/11/24 01:56:57;;;;;;;0.40;0.40;;;6.20;99.90;;;;;;6191476;23;20220;-84
2023/11/24 01:59:27;;;;;;;0.43;0.43;;;6.20;99.90;;;;;;6191050;23;20191;-83
2023/11/24 02:01:56;;;;;;;2.95;1.88;;;6.40;99.90;;;;;;6190659;23;20212;-86
2023/11/24 02:04:23;;;;;;;0.50;0.50;;;6.30;99.90;;;;;;6191287;23;20177;-83
2023/11/24 02:06:50;;;;;;;0.88;0.88;;;6.30;99.90;;;;;;6193111;23;20260;-85
2023/11/24 02:09:18;;;;;;;0.50;0.50;;;6.30;99.90;;;;;;6204392;23;20177;-85
2023/11/24 02:11:45;;;;;;;0.40;0.40;;;6.30;99.90;;;;;;6195596;23;20240;-83
2023/11/24 02:14:14;;;;;;;0.43;0.43;;;6.30;99.90;;;;;;6168583;23;20184;-83
2023/11/24 02:16:42;;;;;;;0.50;0.50;;;6.30;99.90;;;;;;6193408;23;20239;-82
2023/11/24 02:19:08;;;;;;;0.40;0.40;;;6.30;99.90;;;;;;6193713;23;20184;-82
2023/11/24 02:21:36;;;;;;;0.90;0.90;;;6.40;99.90;;;;;;6190248;23;20201;-82
2023/11/24 02:24:06;;;;;;;0.63;0.63;;;6.40;99.90;;;;;;6164391;23;20185;-83
2023/11/24 02:26:33;;;;;;;12.05;1.02;;;6.30;99.90;;;;;;6190441;23;20249;-81
2023/11/24 02:29:01;;;;;;;0.47;0.47;;;6.30;99.90;;;;;;6203953;23;20168;-82
2023/11/24 02:31:32;;;;;;;0.60;0.60;;;6.30;99.90;;;;;;6205712;23;20192;-86
2023/11/24 02:33:59;;;;;;;0.50;0.50;;;6.30;99.90;;;;;;6192280;23;20380;-83
2023/11/24 02:36:30;;;;;;;0.80;0.80;;;6.30;99.90;;;;;;6190814;23;20177;-85
2023/11/24 02:38:58;;;;;;;0.50;0.50;;;6.30;99.90;;;;;;6188404;23;20224;-80
2023/11/24 02:41:25;;;;;;;2.75;1.65;;;6.30;99.90;;;;;;6162310;23;20200;-81
2023/11/24 02:43:54;;;;;;;0.50;0.50;;;6.20;99.90;;;;;;6188305;23;20177;-82
2023/11/24 02:46:22;;;;;;;6.47;1.08;;;6.20;99.90;;;;;;6192498;23;20169;-84
2023/11/24 02:49:01;;;;;;;0.50;0.50;;;6.20;99.90;;;;;;6169991;23;20216;-81
2023/11/24 02:51:28;;;;;;;0.50;0.50;;;6.10;99.90;;;;;;6189323;23;20192;-82
2023/11/24 02:53:56;;;;;;;0.90;0.90;;;6.10;99.90;;;;;;6190041;23;20199;-80
2023/11/24 02:56:23;;;;;;;0.50;0.50;;;6.00;99.90;;;;;;6193732;23;20208;-81
2023/11/24 02:58:50;;;;;;;0.50;0.50;;;5.70;99.90;;;;;;6195296;23;20661;-81
2023/11/24 03:01:17;;;;;;;0.50;0.50;;;5.40;99.90;;;;;;6195718;23;20197;-84
2023/11/24 03:03:46;;;;;;;0.90;0.90;;;5.10;99.90;;;;;;6192122;23;20182;-80
2023/11/24 03:06:14;;;;;;;0.52;0.52;;;4.90;99.90;;;;;;6190534;23;20180;-80
2023/11/24 03:08:42;;;;;;;0.50;0.50;;;4.90;99.90;;;;;;6190367;23;20185;-81
2023/11/24 03:11:11;;;;;;;1.85;1.75;;;4.70;99.90;;;;;;6189350;23;20181;-79
2023/11/24 03:13:38;;;;;;;0.60;0.60;;;4.50;99.90;;;;;;6189508;23;20240;-83
2023/11/24 03:16:06;;;;;;;0.50;0.50;;;4.40;99.90;;;;;;6190027;23;20177;-82
2023/11/24 03:18:33;;;;;;;1.67;1.55;;;4.40;99.90;;;;;;6190149;23;20430;-80
2023/11/24 03:21:01;;;;;;;1.85;1.23;;;4.30;99.90;;;;;;6190036;23;20740;-80
2023/11/24 03:23:28;;;;;;;0.50;0.50;;;4.20;99.90;;;;;;6189432;23;20499;-81
2023/11/24 03:25:56;;;;;;;7.88;1.20;;;4.20;99.90;;;;;;6190033;23;20540;-85
2023/11/24 03:28:23;;;;;;;0.70;0.70;;;4.10;99.90;;;;;;6190520;23;20208;-81
2023/11/24 03:30:51;;;;;;;0.50;0.50;;;4.10;99.90;;;;;;6190393;23;20276;-82
2023/11/24 03:33:20;;;;;;;0.60;0.60;;;4.00;99.90;;;;;;6190946;23;20249;-84
2023/11/24 03:35:48;;;;;;;0.65;0.65;;;4.10;99.90;;;;;;6190649;23;20165;-84
2023/11/24 03:38:15;;;;;;;0.40;0.40;;;4.00;99.90;;;;;;6190927;23;20212;-81
2023/11/24 03:40:43;;;;;;;0.70;0.70;;;4.20;99.90;;;;;;6189019;23;20425;-79
2023/11/24 03:43:10;;;;;;;0.73;0.73;;;4.20;99.90;;;;;;6162640;23;20207;-79
2023/11/24 03:45:37;;;;;;;0.50;0.50;;;4.20;99.90;;;;;;6188473;23;20235;-78
2023/11/24 03:48:04;;;;;;;0.40;0.40;;;4.20;99.90;;;;;;6162352;23;20224;-82
2023/11/24 03:50:31;;;;;;;0.60;0.60;;;4.20;99.90;;;;;;6187891;23;20184;-83
2023/11/24 03:52:58;;;;;;;0.50;0.50;;;4.30;99.90;;;;;;6190285;23;20196;-84
2023/11/24 03:55:25;;;;;;;0.50;0.50;;;4.10;99.90;;;;;;6190545;23;20225;-79
2023/11/24 03:57:54;;;;;;;0.40;0.40;;;4.00;99.90;;;;;;6189687;23;20358;-83
2023/11/24 04:00:21;;;;;;;0.50;0.50;;;4.00;99.90;;;;;;6192252;23;20591;-81
2023/11/24 04:02:48;;;;;;;0.50;0.50;;;3.90;99.90;;;;;;6191101;23;20195;-86
2023/11/24 04:05:16;;;;;;;0.50;0.50;;;4.00;99.90;;;;;;6190774;23;20177;-83
2023/11/24 04:07:43;;;;;;;0.50;0.50;;;4.10;99.90;;;;;;6189236;23;20236;-83
2023/11/24 04:10:10;;;;;;;0.40;0.40;;;4.20;99.90;;;;;;6190723;23;20191;-82
2023/11/24 04:12:41;;;;;;;0.40;0.40;;;4.20;99.90;;;;;;6192049;23;20209;-81
2023/11/24 04:15:11;;;;;;;1.75;1.38;;;4.10;99.90;;;;;;6192341;23;20181;-82
2023/11/24 04:17:39;;;;;;;0.98;0.98;;;4.10;99.90;;;;;;6195845;23;20225;-83
2023/11/24 04:20:10;;;;;;;0.82;0.82;;;4.10;99.90;;;;;;6195755;23;20231;-83
2023/11/24 04:22:38;;;;;;;4.63;1.50;;;4.20;99.90;;;;;;6192033;23;20351;-82
2023/11/24 04:25:05;;;;;;;0.40;0.40;;;4.10;99.90;;;;;;6191067;23;20200;-81
2023/11/24 04:27:33;;;;;;;0.70;0.70;;;4.10;99.90;;;;;;6190570;23;20177;-82
2023/11/24 04:30:01;;;;;;;0.50;0.50;;;4.10;99.90;;;;;;6191121;23;20204;-85
2023/11/24 04:32:30;;;;;;;0.60;0.60;;;4.10;99.90;;;;;;6166100;23;20185;-86
2023/11/24 04:34:59;;;;;;;3.63;1.70;;;3.90;99.90;;;;;;6190774;23;20183;-84
2023/11/24 04:37:26;;;;;;;0.50;0.50;;;3.90;99.90;;;;;;6191276;23;20185;-84
2023/11/24 04:39:55;;;;;;;1.00;1.00;;;3.90;99.90;;;;;;6191453;23;20327;-82
2023/11/24 04:42:24;;;;;;;0.90;0.90;;;4.00;99.90;;;;;;6190971;23;20231;-80
2023/11/24 04:44:53;;;;;;;0.65;0.65;;;3.90;99.90;;;;;;6190851;23;20173;-81
2023/11/24 04:47:20;;;;;;;0.40;0.40;;;3.90;99.90;;;;;;6191035;23;20188;-82
2023/11/24 04:49:48;;;;;;;0.60;0.60;;;3.90;99.90;;;;;;6190682;23;20181;-84
2023/11/24 04:52:16;;;;;;;0.40;0.40;;;3.90;99.90;;;;;;6193346;23;20157;-81
2023/11/24 04:54:43;;;;;;;6.82;1.83;;;3.90;99.90;;;;;;6203474;23;20630;-79
2023/11/24 04:57:11;;;;;;;1.23;1.13;;;3.90;99.90;;;;;;6200477;23;20177;-80
2023/11/24 04:59:43;;;;;;;0.50;0.50;;;3.80;99.90;;;;;;6194016;23;20181;-79
2023/11/24 05:02:10;;;;;;;2.10;2.00;;;3.80;99.90;;;;;;6196756;23;20212;-86
2023/11/24 05:04:38;;;;;;;0.50;0.50;;;3.90;99.90;;;;;;6197987;23;20500;-85
2023/11/24 05:07:10;;;;;;;1.55;1.45;;;3.90;99.90;;;;;;6212513;23;20159;-84
2023/11/24 05:09:38;;;;;;;0.50;0.50;;;3.80;99.90;;;;;;6188347;23;20220;-86
2023/11/24 05:12:06;;;;;;;0.50;0.50;;;3.70;99.90;;;;;;6192077;23;20185;-81
2023/11/24 05:14:32;;;;;;;0.70;0.70;;;3.60;99.90;;;;;;6190326;23;20248;-82
2023/11/24 05:17:00;;;;;;;0.50;0.50;;;3.60;99.90;;;;;;6189899;23;20201;-82
2023/11/24 05:19:27;;;;;;;0.50;0.50;;;3.70;99.90;;;;;;6190261;23;20185;-82
2023/11/24 05:21:53;;;;;;;0.60;0.60;;;3.80;99.90;;;;;;6190775;23;20692;-81
2023/11/24 05:24:21;;;;;;;0.50;0.50;;;3.80;99.90;;;;;;6191630;23;20251;-84
2023/11/24 05:26:48;;;;;;;0.50;0.50;;;3.80;99.90;;;;;;6164003;23;20207;-80
2023/11/24 05:29:16;;;;;;;0.50;0.50;;;3.80;99.90;;;;;;6190061;23;20236;-79
2023/11/24 05:31:43;;;;;;;0.50;0.50;;;3.80;99.90;;;;;;6190063;23;20212;-82
2023/11/24 05:34:12;;;;;;;0.50;0.50;;;3.90;99.90;;;;;;6191282;23;20212;-82
2023/11/24 05:36:39;;;;;;;0.80;0.80;;;4.00;99.90;;;;;;6197868;23;20169;-82
2023/11/24 05:39:07;;;;;;;2.63;0.73;;;3.90;99.90;;;;;;6212916;23;20184;-82
2023/11/24 05:41:35;;;;;;;0.50;0.50;;;4.10;99.90;;;;;;6211585;23;20239;-82
2023/11/24 05:44:01;;;;;;;0.50;0.50;;;4.10;99.90;;;;;;6185353;23;20264;-80
2023/11/24 05:46:28;;;;;;;0.40;0.40;;;4.10;99.90;;;;;;6201104;23;20184;-82
2023/11/24 05:48:58;;;;;;;2.20;1.35;;;4.00;99.90;;;;;;6190690;23;20185;-82
2023/11/24 05:51:25;;;;;;;0.70;0.70;;;3.90;99.90;;;;;;6192106;23;20366;-84
2023/11/24 05:53:52;;;;;;;0.40;0.40;;;3.80;99.90;;;;;;6190342;23;20249;-84
2023/11/24 05:56:19;;;;;;;0.73;0.73;;;3.70;99.90;;;;;;6190432;23;20181;-80
2023/11/24 05:58:48;;;;;;;0.40;0.40;;;3.60;99.90;;;;;;6189878;23;20251;-81
2023/11/24 06:01:20;;;;;;;0.40;0.40;;;3.60;99.90;;;;;;6163820;23;20235;-81
2023/11/24 06:03:47;;;;;;;0.40;0.40;;;3.50;99.90;;;;;;6164288;23;20177;-81
2023/11/24 06:06:14;;;;;;;0.40;0.40;;;3.40;99.90;;;;;;6190521;23;20173;-83
2023/11/24 06:08:44;;;;;;;0.40;0.40;;;3.50;99.90;;;;;;6189519;23;20184;-80
2023/11/24 06:11:11;;;;;;;0.40;0.40;;;3.40;99.90;;;;;;6192058;23;20212;-80
2023/11/24 06:13:38;;;;;;;0.40;0.40;;;3.50;99.90;;;;;;6165532;23;20228;-81
2023/11/24 06:16:05;;;;;;;0.40;0.40;;;3.50;99.90;;;;;;6192341;23;20244;-80
2023/11/24 06:18:32;;;;;;;0.40;0.40;;;3.50;99.90;;;;;;6194084;23;20169;-81
2023/11/24 06:21:00;;;;;;;0.40;0.40;;;3.50;99.90;;;;;;6195593;23;20373;-81
2023/11/24 06:23:27;;;;;;;0.95;0.95;;;3.30;99.90;;;;;;6196666;23;20177;-81
2023/11/24 06:25:54;;;;;;;0.47;0.47;;;3.20;99.90;;;;;;6200334;23;20240;-81
2023/11/24 06:28:22;;;;;;;0.40;0.40;;;3.20;99.90;;;;;;6201903;23;20180;-83
2023/11/24 06:30:49;;;;;;;18.75;1.40;;;3.20;99.90;;;;;;6198297;23;20177;-80
2023/11/24 06:33:16;;;;;;;0.47;0.47;;;3.20;99.90;;;;;;6196124;23;20173;-81
2023/11/24 06:35:44;;;;;;;0.50;0.50;;;3.20;99.90;;;;;;6166279;23;20399;-83
2023/11/24 06:38:12;;;;;;;0.40;0.40;;;3.10;99.90;;;;;;6193072;23;20173;-81
2023/11/24 06:40:39;;;;;;;0.40;0.40;;;3.10;99.90;;;;;;6193125;23;20546;-81
2023/11/24 06:43:06;;;;;;;0.80;0.80;;;2.90;99.90;;;;;;6192838;23;20210;-82
2023/11/24 06:45:34;;;;;;;0.40;0.40;;;3.00;99.90;;;;;;6190911;23;20477;-82
2023/11/24 06:48:01;;;;;;;0.55;0.55;;;3.10;99.90;;;;;;6164046;23;20181;-81
2023/11/24 06:50:28;;;;;;;0.40;0.40;;;2.90;99.90;;;;;;6188890;23;20232;-81
2023/11/24 06:52:58;;;;;;;0.85;0.85;;;2.90;99.90;;;;;;6187712;23;20508;-82
2023/11/24 06:55:25;;;;;;;0.82;0.82;;;3.00;99.90;;;;;;6188254;23;20204;-79
2023/11/24 06:57:52;;;;;;;1.02;0.70;;;2.80;99.90;;;;;;6188565;23;20215;-80
2023/11/24 07:00:20;;;;;;;0.80;0.80;;;2.90;99.90;;;;;;6188262;23;20185;-80
2023/11/24 07:02:50;;;;;;;0.50;0.50;;;2.80;99.90;;;;;;6190048;23;20371;-78
2023/11/24 07:05:17;;;;;;;1.25;1.15;;;2.80;99.90;;;;;;6191333;23;20188;-79
2023/11/24 07:07:44;;;;;;;0.40;0.40;;;2.80;99.90;;;;;;6192652;23;20239;-81
2023/11/24 07:10:13;;;;;;;0.40;0.40;;;2.80;99.90;;;;;;6195846;23;20204;-80
2023/11/24 07:12:44;;;;;;;0.88;0.82;;;2.80;99.90;;;;;;6190152;23;20185;-80
2023/11/24 07:15:12;;;;;;;0.43;0.43;;;2.80;99.90;;;;;;6189903;23;20181;-81
2023/11/24 07:17:39;;;;;;;0.70;0.70;;;2.90;99.90;;;;;;6202728;23;20211;-80
2023/11/24 07:20:11;;;;;;;0.40;0.40;;;3.00;99.90;;;;;;6194578;23;20189;-78
2023/11/24 07:22:39;;;;;;;0.75;0.75;;;3.00;99.90;;;;;;6188666;23;20192;-81
2023/11/24 07:25:07;;;;;;;0.50;0.50;;;3.10;99.90;;;;;;6188904;23;20227;-80
2023/11/24 07:27:34;;;;;;;0.88;0.88;;;3.20;99.90;;;;;;6188629;23;20176;-81
2023/11/24 07:30:01;;;;;;;0.40;0.40;;;3.80;99.90;;;;;;6191758;23;20177;-82
2023/11/24 07:32:29;;;;;;;0.50;0.50;;;4.90;99.90;;;;;;6190374;23;20204;-80
2023/11/24 07:34:56;;;;;;;1.50;1.40;;;5.00;99.90;;;;;;6161954;23;20181;-81
2023/11/24 07:37:23;;;;;;;0.40;0.40;;;4.60;99.90;;;;;;6188595;23;20188;-82
2023/11/24 07:39:50;;;;;;;0.40;0.40;;;5.40;99.90;;;;;;6187926;23;20192;-81
2023/11/24 07:42:17;;;;;;;0.60;0.60;;;4.60;99.90;;;;;;6188715;23;20207;-79
2023/11/24 07:44:48;;;;;;;0.50;0.50;;;4.20;99.90;;;;;;6188615;23;20556;-81
2023/11/24 07:47:18;;;;;;;0.50;0.50;;;4.40;99.90;;;;;;6188940;23;20200;-81
2023/11/24 07:49:46;;;;;;;0.60;0.60;;;4.50;99.90;;;;;;6187689;23;20173;-83
2023/11/24 07:52:13;;;;;;;0.40;0.40;;;4.50;99.90;;;;;;6189360;23;20180;-80
2023/11/24 07:54:40;;;;;;;0.55;0.55;;;4.50;99.90;;;;;;6166297;23;20191;-81
2023/11/24 07:57:08;;;;;;;0.40;0.40;;;4.60;99.90;;;;;;6195418;23;20188;-82
2023/11/24 07:59:35;;;;;;;0.40;0.40;;;4.70;99.90;;;;;;6194680;23;20192;-82
2023/11/24 08:02:02;;;;;;;0.63;0.63;;;4.70;99.90;;;;;;6193390;23;20217;-82
2023/11/24 08:04:32;;;;;;;0.40;0.40;;;5.10;99.90;;;;;;6195177;23;20185;-83
2023/11/24 08:06:59;;;;;;;0.40;0.40;;;5.40;99.90;;;;;;6167533;23;20181;-81
2023/11/24 08:09:26;;;;;;;0.40;0.40;;;5.60;99.90;;;;;;6189812;23;20397;-80
2023/11/24 08:11:55;;;;;;;2.15;1.25;;;4.60;99.90;;;;;;6166190;23;20243;-81
2023/11/24 08:14:23;;;;;;;0.60;0.60;;;3.80;99.90;;;;;;6192210;23;20185;-82
2023/11/24 08:16:51;;;;;;;0.60;0.60;;;3.30;99.90;;;;;;6190277;23;20195;-81
2023/11/24 08:19:22;;;;;;;0.60;0.60;;;3.20;99.90;;;;;;6191429;23;20585;-80
2023/11/24 08:21:50;;;;;;;0.60;0.60;;;3.50;99.90;;;;;;6192866;23;20645;-82
2023/11/24 08:24:17;;;;;;;0.85;0.85;;;3.50;99.90;;;;;;6192501;23;20409;-81
2023/11/24 08:26:45;;;;;;;0.50;0.50;;;3.60;99.90;;;;;;6191755;23;20180;-83
2023/11/24 08:29:12;;;;;;;0.50;0.50;;;3.60;99.90;;;;;;6190285;23;20554;-81
2023/11/24 08:31:44;;;;;;;0.70;0.70;;;3.50;99.90;;;;;;6190477;23;20760;-81
2023/11/24 08:34:13;;;;;;;2.53;2.25;;;3.50;99.90;;;;;;6188436;23;20237;-81
2023/11/24 08:36:42;;;;;;;0.80;0.80;;;3.50;99.90;;;;;;6164496;23;20192;-83
2023/11/24 08:39:13;;;;;;;0.50;0.50;;;3.60;99.90;;;;;;6189038;23;20185;-81
2023/11/24 08:41:44;;;;;;;0.63;0.63;;;3.60;99.90;;;;;;6189434;23;20193;-81
2023/11/24 08:44:16;;;;;;;0.57;0.57;;;3.70;99.90;;;;;;6189258;23;20188;-82
2023/11/24 08:46:43;;;;;;;1.75;1.05;;;3.90;99.90;;;;;;6190259;23;20177;-82
2023/11/24 08:49:11;;;;;;;0.50;0.50;;;4.00;99.90;;;;;;6190793;23;20208;-81
2023/11/24 08:51:40;;;;;;;0.50;0.50;;;4.10;99.90;;;;;;6191132;23;20192;-86
2023/11/24 08:54:10;;;;;;;2.63;2.42;;;4.10;99.90;;;;;;6190403;23;20275;-84
2023/11/24 08:56:38;;;;;;;0.50;0.50;;;4.20;99.90;;;;;;6189851;23;20412;-85
2023/11/24 08:59:10;;;;;;;1.15;0.88;;;4.10;99.90;;;;;;6189701;23;20179;-81
2023/11/24 09:01:37;;;;;;;0.50;0.50;;;4.00;99.90;;;;;;6191931;23;20216;-82
2023/11/24 09:04:10;;;;;;;0.50;0.50;;;4.00;99.90;;;;;;6192876;23;20177;-84
2023/11/24 09:06:41;;;;;;;0.60;0.60;;;4.10;99.90;;;;;;6195095;23;20202;-81
2023/11/24 09:09:12;;;;;;;0.40;0.40;;;4.10;99.90;;;;;;6194259;23;20170;-87
2023/11/24 09:11:47;;;;;;;1.35;1.35;;;4.30;99.90;;;;;;6192679;23;20169;-80
2023/11/24 09:14:16;;;;;;;0.50;0.50;;;4.50;99.90;;;;;;6170393;23;20164;-82
2023/11/24 09:16:44;;;;;;;0.68;0.68;;;4.70;99.90;;;;;;6167351;23;20748;-81
2023/11/24 09:19:11;;;;;;;0.40;0.40;;;4.80;99.90;;;;;;6168253;23;20373;-88
2023/11/24 09:21:38;;;;;;;0.40;0.40;;;4.90;99.90;;;;;;6194075;23;20231;-83
2023/11/24 09:24:07;;;;;;;0.50;0.50;;;4.90;99.90;;;;;;6167549;23;20543;-85
2023/11/24 09:26:45;;;;;;;0.70;0.70;;;4.90;99.90;;;;;;6196527;23;20162;-84
2023/11/24 09:29:34;;;;;;;0.50;0.50;;;4.90;99.90;;;;;;6194711;23;20180;-83
2023/11/24 09:32:03;;;;;;;0.50;0.50;;;4.90;99.90;;;;;;6198852;23;20365;-84
2023/11/24 09:34:35;;;;;;;1.17;1.13;;;4.80;99.90;;;;;;6195751;23;20370;-82
2023/11/24 09:37:02;;;;;;;0.45;0.45;;;4.80;99.90;;;;;;6168375;23;20185;-81
2023/11/24 09:39:29;;;;;;;0.40;0.40;;;4.80;99.90;;;;;;6193145;23;20227;-83
2023/11/24 09:41:58;;;;;;;0.50;0.50;;;4.80;99.90;;;;;;6192841;23;20225;-82
2023/11/24 09:44:26;;;;;;;0.95;0.95;;;4.90;99.90;;;;;;6168646;23;20208;-83
2023/11/24 09:46:55;;;;;;;0.47;0.47;;;5.00;99.90;;;;;;6194505;23;20181;-80
2023/11/24 09:49:24;;;;;;;1.73;1.63;;;5.00;99.90;;;;;;6193282;23;20235;-82
2023/11/24 09:51:51;;;;;;;0.50;0.50;;;4.80;99.90;;;;;;6192468;23;20411;-81
2023/11/24 09:54:21;;;;;;;0.40;0.40;;;5.10;99.90;;;;;;6192194;23;20220;-85
2023/11/24 09:56:48;;;;;;;0.50;0.50;;;4.90;99.90;;;;;;6191744;23;20181;-83
2023/11/24 09:59:16;;;;;;;0.50;0.50;;;5.00;99.90;;;;;;6192526;23;20201;-85
2023/11/24 10:01:43;;;;;;;0.50;0.50;;;5.00;99.90;;;;;;6191050;23;20572;-81
2023/11/24 10:04:10;;;;;;;0.70;0.70;;;5.00;99.90;;;;;;6166085;23;20177;-80
2023/11/24 10:06:43;;;;;;;1.83;1.73;;;5.00;99.90;;;;;;6192391;23;20181;-84
2023/11/24 10:09:12;;;;;;;0.80;0.80;;;4.90;99.90;;;;;;6193658;23;20228;-83
2023/11/24 10:11:39;;;;;;;0.50;0.50;;;4.90;99.90;;;;;;6193710;23;20177;-86
2023/11/24 10:14:12;;;;;;;1.85;1.15;;;5.00;99.90;;;;;;6210483;23;20173;-85
2023/11/24 10:16:40;;;;;;;1.15;1.15;;;4.90;99.90;;;;;;6212282;23;20154;-83
2023/11/24 10:19:15;;;;;;;0.50;0.50;;;4.90;99.90;;;;;;6210797;23;20169;-83
2023/11/24 10:21:50;;;;;;;0.60;0.60;;;5.00;99.90;;;;;;6199986;23;20179;-83
2023/11/24 10:24:18;;;;;;;0.70;0.70;;;4.90;99.90;;;;;;6193281;23;20188;-83
2023/11/24 10:26:45;;;;;;;0.50;0.50;;;4.80;99.90;;;;;;6194364;23;20235;-83
2023/11/24 10:29:23;;;;;;;1.42;1.42;;;4.90;99.90;;;;;;6168991;23;20199;-88
2023/11/24 10:31:51;;;;;;;0.50;0.50;;;4.80;99.90;;;;;;6194276;23;20169;-82
2023/11/24 10:34:18;;;;;;;0.50;0.50;;;4.80;99.90;;;;;;6194710;23;20374;-83
2023/11/24 10:36:47;;;;;;;0.50;0.50;;;4.80;99.90;;;;;;6167890;23;20405;-82
2023/11/24 10:39:17;;;;;;;0.98;0.98;;;4.80;99.90;;;;;;6197231;23;20177;-85
2023/11/24 10:41:47;;;;;;;0.47;0.47;;;4.70;99.90;;;;;;6167851;23;20203;-81
2023/11/24 10:44:21;;;;;;;0.45;0.40;;;4.60;99.90;;;;;;6193234;23;20176;-84
2023/11/24 10:46:57;;;;;;;0.47;0.47;;;4.60;99.90;;;;;;6170495;23;20175;-81
2023/11/24 10:49:34;;;;;;;1.08;1.08;;;4.60;99.90;;;;;;6194083;23;20204;-81
2023/11/24 10:52:06;;;;;;;0.60;0.60;;;4.60;99.90;;;;;;6166994;23;20674;-83
2023/11/24 10:54:45;;;;;;;0.50;0.50;;;4.60;99.90;;;;;;6192077;23;20210;-87
2023/11/24 10:57:17;;;;;;;1.00;1.00;;;4.50;99.90;;;;;;6206538;23;20169;-83
2023/11/24 10:59:45;;;;;;;0.50;0.50;;;4.40;99.90;;;;;;6211681;23;20181;-84
2023/11/24 11:02:14;;;;;;;0.70;0.70;;;4.30;99.90;;;;;;6184825;23;20216;-86
2023/11/24 11:05:10;;;;;;;0.40;0.40;;;4.30;99.90;;;;;;6196704;23;20165;-80
2023/11/24 11:08:13;;;;;;;0.50;0.50;;;4.40;99.90;;;;;;6190489;23;20173;-82
2023/11/24 11:11:15;;;;;;;0.68;0.68;;;4.30;99.90;;;;;;6192457;23;20173;-81
2023/11/24 11:13:43;;;;;;;0.50;0.50;;;4.50;99.90;;;;;;6153371;23;20192;-82
2023/11/24 11:16:13;;;;;;;0.70;0.70;;;4.60;99.90;;;;;;6206877;23;20184;-82
2023/11/24 11:18:43;;;;;;;0.50;0.50;;;4.70;99.90;;;;;;6205549;23;20177;-84
2023/11/24 11:21:40;;;;;;;0.50;0.50;;;4.30;99.90;;;;;;6193520;23;20189;-85
2023/11/24 11:24:23;;;;;;;0.52;0.52;;;4.00;99.90;;;;;;6193254;23;20193;-83
2023/11/24 11:26:51;;;;;;;7.30;1.45;;;4.20;99.90;;;;;;6193379;23;20433;-82
2023/11/24 11:29:19;;;;;;;0.93;0.93;;;4.20;99.90;;;;;;6191914;23;20173;-82
2023/11/24 11:31:53;;;;;;;0.50;0.50;;;4.20;99.90;;;;;;6191436;23;20232;-80
2023/11/24 11:34:30;;;;;;;0.50;0.50;;;4.20;99.90;;;;;;6191979;23;20160;-82
2023/11/24 11:37:05;;;;;;;0.60;0.60;;;4.10;99.90;;;;;;6166783;23;20179;-82
2023/11/24 11:39:57;;;;;;;1.02;1.02;;;3.70;99.90;;;;;;6165476;23;20211;-84
2023/11/24 11:42:31;;;;;;;0.60;0.60;;;3.20;99.90;;;;;;6191191;23;20493;-80
2023/11/24 11:45:09;;;;;;;0.70;0.70;;;2.60;99.90;;;;;;6166084;23;20176;-82
2023/11/24 11:47:51;;;;;;;0.60;0.60;;;2.30;99.90;;;;;;6192321;23;20164;-83
2023/11/24 11:50:24;;;;;;;0.60;0.60;;;2.30;99.90;;;;;;6192999;23;20179;-81
2023/11/24 11:52:57;;;;;;;0.80;0.80;;;2.30;99.90;;;;;;6193533;23;20197;-83
2023/11/24 11:55:25;;;;;;;0.50;0.50;;;2.30;99.90;;;;;;6195404;23;20173;-84
2023/11/24 11:58:00;;;;;;;2.17;2.08;;;2.30;99.90;;;;;;6194361;23;20176;-85
2023/11/24 12:00:30;;;;;;;0.50;0.50;;;2.40;99.90;;;;;;6196431;23;20161;-84
2023/11/24 12:02:59;;;;;;;1.73;1.63;;;2.50;99.90;;;;;;6166999;23;20273;-81
2023/11/24 12:05:28;;;;;;;0.75;0.75;;;2.50;99.90;;;;;;6169878;23;20173;-85
2023/11/24 12:07:58;;;;;;;0.50;0.50;;;2.60;99.90;;;;;;6193029;23;20187;-82
2023/11/24 12:10:29;;;;;;;0.50;0.50;;;2.60;99.90;;;;;;6194758;23;20196;-87
2023/11/24 12:13:03;;;;;;;0.57;0.57;;;2.80;99.90;;;;;;6192263;23;20187;-85
2023/11/24 12:15:34;;;;;;;0.60;0.60;;;2.90;99.90;;;;;;6193095;23;20165;-88
2023/11/24 12:18:02;;;;;;;2.15;2.05;;;3.10;99.90;;;;;;6192717;23;20192;-85
2023/11/24 12:20:31;;;;;;;0.45;0.45;;;3.20;99.90;;;;;;6193373;23;20587;-84
2023/11/24 12:23:00;;;;;;;0.50;0.50;;;3.30;99.90;;;;;;6168687;23;20580;-87
2023/11/24 12:25:31;;;;;;;0.50;0.50;;;3.50;99.90;;;;;;6168436;23;20201;-84
2023/11/24 12:28:04;;;;;;;1.08;0.98;;;3.60;99.90;;;;;;6195892;23;20177;-81
2023/11/24 12:30:41;;;;;;;1.38;1.38;;;3.60;99.90;;;;;;6171026;23;20172;-85
2023/11/24 12:33:14;;;;;;;0.50;0.50;;;3.70;99.90;;;;;;6194052;23;20181;-85
2023/11/24 12:35:54;;;;;;;0.60;0.60;;;3.70;99.90;;;;;;6170675;23;20192;-85
2023/11/24 12:38:24;;;;;;;0.50;0.50;;;3.70;99.90;;;;;;6202270;23;20207;-85
2023/11/24 12:40:54;;;;;;;0.60;0.60;;;3.70;99.90;;;;;;6205588;23;20181;-86
2023/11/24 12:43:22;;;;;;;0.50;0.50;;;3.60;99.90;;;;;;6208703;23;20208;-86
2023/11/24 12:45:55;;;;;;;0.93;0.93;;;3.50;99.90;;;;;;6211567;23;20149;-89
2023/11/24 12:51:10;;;;;;;0.70;0.70;;;3.60;99.90;;;;;;6212204;23;20190;-87
2023/11/24 12:53:41;;;;;;;0.60;0.60;;;3.60;99.90;;;;;;6182921;23;20169;-85
2023/11/24 12:56:14;;;;;;;1.10;1.10;;;3.70;99.90;;;;;;6206974;23;20417;-85
2023/11/24 12:58:50;;;;;;;1.08;1.08;;;3.80;99.90;;;;;;6207171;23;20153;-83
2023/11/24 13:01:22;;;;;;;0.60;0.60;;;3.60;99.90;;;;;;6160278;23;20188;-82
2023/11/24 13:03:53;;;;;;;0.50;0.50;;;3.70;99.90;;;;;;6164205;23;20209;-86
2023/11/24 13:06:23;;;;;;;0.50;0.50;;;3.70;99.90;;;;;;6180784;23;20166;-88
2023/11/24 13:08:52;;;;;;;2.08;1.98;;;3.70;99.90;;;;;;6179807;23;20174;-88
2023/11/24 13:11:29;;;;;;;0.80;0.80;;;3.70;99.90;;;;;;6179754;23;20192;-88